HETR

El Tor Airport

Egypt
METAR HETR 190200Z 27018KT 6000 NSC 17/06 Q1013
Observed Flight Rules
Jan-19 @ 02:00 UTC (2 hours ago) Marginal Visual Flight Rules
Wind Visibility Clouds
270° at 18 knots 6,003 meters
  • Clear skies
Temperatures Readings
Current 17°C / 63°F
Dewpoint 6°C / 43°F
Humidity 49%
Altimeter 29.91" Hg
Pressure 1013 hPa
Elevation 35
METAR HETR 190200Z 27018KT 6000 NSC 17/06 Q1013
Observed Flight Rules
Jan-19 @ 02:00 UTC
(2 hours ago)
MVFR
Wind Visibility
270° at 18 knots 6,003 meters
Clouds
  • Clear skies
Temperature Dewpoint
17°C / 63°F 6°C / 43°F
Humidity Altimeter Pressure
49% 29.91" Hg 1013 hPa